createdAt,value
2024-01-20T00:00:33.730Z,12.23
2024-01-20T00:01:16.035Z,12.80
2024-01-20T00:01:58.778Z,12.20
2024-01-20T00:02:41.767Z,12.32
2024-01-20T00:03:26.521Z,11.20
2024-01-20T00:04:08.919Z,11.70
2024-01-20T00:04:51.802Z,12.18
2024-01-20T00:05:34.530Z,12.68
2024-01-20T00:06:17.057Z,13.02
2024-01-20T00:06:59.991Z,12.70
2024-01-20T00:07:44.216Z,13.00
2024-01-20T00:08:27.628Z,12.93
2024-01-20T00:09:09.878Z,13.43
2024-01-20T00:09:55.433Z,12.70
2024-01-20T00:10:37.678Z,12.77
2024-01-20T00:11:20.243Z,13.00
2024-01-20T00:12:02.721Z,13.15
2024-01-20T00:12:45.502Z,13.27
2024-01-20T00:13:30.508Z,13.65
2024-01-20T00:14:13.198Z,12.57
2024-01-20T00:14:55.591Z,12.93
2024-01-20T00:15:40.290Z,13.85
2024-01-20T00:16:22.501Z,14.80
2024-01-20T00:17:13.588Z,13.82
2024-01-20T00:18:05.702Z,13.25
2024-01-20T00:18:48.682Z,13.15
2024-01-20T00:19:31.134Z,12.65
2024-01-20T00:20:13.666Z,12.80
2024-01-20T00:20:56.758Z,13.45
2024-01-20T00:21:40.780Z,12.23
2024-01-20T00:22:23.849Z,12.55
2024-01-20T00:23:06.765Z,13.65
2024-01-20T00:23:49.041Z,12.98
2024-01-20T00:24:31.644Z,12.85
2024-01-20T00:25:13.828Z,13.25
2024-01-20T00:25:56.077Z,12.90
2024-01-20T00:26:40.982Z,12.90
2024-01-20T00:27:23.561Z,13.77
2024-01-20T00:28:06.069Z,13.13
2024-01-20T00:28:48.345Z,13.00
2024-01-20T00:29:30.548Z,13.05
2024-01-20T00:30:15.686Z,13.18
2024-01-20T00:30:58.320Z,13.38
2024-01-20T00:31:41.484Z,13.77
2024-01-20T00:32:23.753Z,13.18
2024-01-20T00:33:09.559Z,13.00
2024-01-20T00:33:52.151Z,12.45
2024-01-20T00:34:46.315Z,12.63
2024-01-20T00:35:37.920Z,11.27
2024-01-20T00:36:20.553Z,10.85
2024-01-20T00:37:04.614Z,12.50
2024-01-20T00:37:46.837Z,12.65
2024-01-20T00:38:31.385Z,12.93
2024-01-20T00:39:15.810Z,13.13
2024-01-20T00:40:00.906Z,12.48
2024-01-20T00:40:43.132Z,12.80
2024-01-20T00:41:25.787Z,11.88
2024-01-20T00:42:08.025Z,12.23
2024-01-20T00:42:50.565Z,12.65
2024-01-20T00:43:32.728Z,12.57
2024-01-20T00:44:14.978Z,12.48
2024-01-20T00:45:00.021Z,12.68
2024-01-20T00:45:42.527Z,12.30
2024-01-20T00:46:25.488Z,12.10
2024-01-20T00:47:08.077Z,12.60
2024-01-20T00:47:53.017Z,12.60
2024-01-20T00:48:37.706Z,12.35
2024-01-20T00:49:19.958Z,12.43
2024-01-20T00:50:05.704Z,12.38
2024-01-20T00:50:47.908Z,13.23
2024-01-20T00:51:30.641Z,12.20
2024-01-20T00:52:12.802Z,12.45
2024-01-20T00:52:55.061Z,11.55
2024-01-20T00:53:37.561Z,12.10
2024-01-20T00:54:19.720Z,13.32
2024-01-20T00:55:01.906Z,12.45
2024-01-20T00:55:44.513Z,11.35
2024-01-20T00:56:26.701Z,12.43
2024-01-20T00:57:08.912Z,12.73
2024-01-20T00:57:51.648Z,12.90
2024-01-20T00:58:33.786Z,12.13
2024-01-20T00:59:15.999Z,12.00
2024-01-20T01:00:00.662Z,12.77
2024-01-20T01:00:42.852Z,12.90
2024-01-20T01:01:25.090Z,12.05
2024-01-20T01:02:07.601Z,11.20
2024-01-20T01:02:49.831Z,12.20
2024-01-20T01:03:32.381Z,12.68
2024-01-20T01:04:14.631Z,12.80
2024-01-20T01:04:56.811Z,12.30
2024-01-20T01:05:38.974Z,11.80
2024-01-20T01:06:21.353Z,12.52
2024-01-20T01:07:04.021Z,11.98
2024-01-20T01:07:47.525Z,12.10
2024-01-20T01:08:29.761Z,11.88
2024-01-20T01:09:12.174Z,11.68
2024-01-20T01:09:54.848Z,11.90
2024-01-20T01:10:37.060Z,12.00
2024-01-20T01:11:21.823Z,12.02
2024-01-20T01:12:04.852Z,12.20
2024-01-20T01:12:47.036Z,12.48
2024-01-20T01:13:29.698Z,12.40
2024-01-20T01:14:11.977Z,11.55
2024-01-20T01:14:55.892Z,10.75
2024-01-20T01:15:38.090Z,11.15
2024-01-20T01:16:20.652Z,11.60
2024-01-20T01:17:03.745Z,12.52
2024-01-20T01:17:46.006Z,11.40
2024-01-20T01:18:28.491Z,10.95
2024-01-20T01:19:10.807Z,11.15
2024-01-20T01:19:53.048Z,11.20
2024-01-20T01:20:35.575Z,10.77
2024-01-20T01:21:17.736Z,10.07
2024-01-20T01:22:00.156Z,10.63
2024-01-20T01:22:42.780Z,11.13
2024-01-20T01:23:25.805Z,11.20
2024-01-20T01:24:08.795Z,10.73
2024-01-20T01:24:51.040Z,11.48
2024-01-20T01:25:33.583Z,10.77
2024-01-20T01:26:16.921Z,10.60
2024-01-20T01:26:59.631Z,11.10
2024-01-20T01:27:41.880Z,11.20
2024-01-20T01:28:24.062Z,10.88
2024-01-20T01:29:06.968Z,10.88
2024-01-20T01:29:49.701Z,10.68
2024-01-20T01:30:31.979Z,10.50
2024-01-20T01:31:14.581Z,10.15
2024-01-20T01:31:56.839Z,10.80
2024-01-20T01:32:39.087Z,10.40
2024-01-20T01:33:21.608Z,10.95
2024-01-20T01:34:03.874Z,11.05
2024-01-20T01:34:46.054Z,11.18
2024-01-20T01:35:30.941Z,11.45
2024-01-20T01:36:13.482Z,10.63
2024-01-20T01:36:58.001Z,10.70
2024-01-20T01:37:40.391Z,10.63
2024-01-20T01:38:22.690Z,11.60
2024-01-20T01:39:05.622Z,12.00
2024-01-20T01:39:48.050Z,10.05
2024-01-20T01:40:30.763Z,10.45
2024-01-20T01:41:13.015Z,11.50
2024-01-20T01:41:58.018Z,11.73
2024-01-20T01:42:40.511Z,10.57
2024-01-20T01:43:23.088Z,10.90
2024-01-20T01:44:05.665Z,10.50
2024-01-20T01:44:47.891Z,10.65
2024-01-20T01:45:30.111Z,10.98
2024-01-20T01:46:12.745Z,11.38
2024-01-20T01:46:54.989Z,11.40
2024-01-20T01:47:37.635Z,11.35
2024-01-20T01:48:19.901Z,11.38
2024-01-20T01:49:04.634Z,10.70
2024-01-20T01:49:47.107Z,11.32
2024-01-20T01:50:29.598Z,11.25
2024-01-20T01:51:15.594Z,11.70
2024-01-20T01:51:57.863Z,11.40
2024-01-20T01:52:40.648Z,11.10
2024-01-20T01:53:22.858Z,10.73
2024-01-20T01:54:06.415Z,10.60
2024-01-20T01:54:48.936Z,11.10
2024-01-20T01:55:31.474Z,11.57
2024-01-20T01:56:14.675Z,12.25
2024-01-20T01:57:01.182Z,11.27
2024-01-20T01:57:44.183Z,11.13
2024-01-20T01:58:27.650Z,12.70
2024-01-20T01:59:10.911Z,13.20
2024-01-20T01:59:54.014Z,12.07
2024-01-20T02:00:36.755Z,11.88
2024-01-20T02:01:19.029Z,12.30
2024-01-20T02:02:01.665Z,11.38
2024-01-20T02:02:43.845Z,11.80
2024-01-20T02:03:26.838Z,11.65
2024-01-20T02:04:09.193Z,11.65
2024-01-20T02:04:51.717Z,12.10
2024-01-20T02:05:33.982Z,12.10
2024-01-20T02:06:16.838Z,12.32
2024-01-20T02:06:59.187Z,12.48
2024-01-20T02:07:43.939Z,12.10
2024-01-20T02:08:27.877Z,12.05
2024-01-20T02:09:11.703Z,12.57
2024-01-20T02:09:53.999Z,11.80
2024-01-20T02:10:36.546Z,12.52
2024-01-20T02:11:19.064Z,13.68
2024-01-20T02:12:01.843Z,13.20
2024-01-20T02:12:44.699Z,12.88
2024-01-20T02:13:26.996Z,13.23
2024-01-20T02:14:09.703Z,13.05
2024-01-20T02:14:52.835Z,13.60
2024-01-20T02:15:35.761Z,13.38
2024-01-20T02:16:20.806Z,13.45
2024-01-20T02:17:05.702Z,14.73
2024-01-20T02:17:51.723Z,14.15
2024-01-20T02:18:34.785Z,14.60
2024-01-20T02:19:17.132Z,13.90
2024-01-20T02:19:59.547Z,13.63
2024-01-20T02:20:41.762Z,14.18
2024-01-20T02:21:24.040Z,13.45
2024-01-20T02:22:11.120Z,13.98
2024-01-20T02:22:53.716Z,14.65
2024-01-20T02:23:39.170Z,14.00
2024-01-20T02:24:21.756Z,13.25
2024-01-20T02:25:04.129Z,13.57
2024-01-20T02:25:49.700Z,13.45
2024-01-20T02:26:31.884Z,13.45
2024-01-20T02:27:14.085Z,13.45
2024-01-20T02:27:56.701Z,13.00
2024-01-20T02:28:38.974Z,12.40
2024-01-20T02:29:21.305Z,12.60
2024-01-20T02:30:03.949Z,12.57
2024-01-20T02:30:47.847Z,12.27
2024-01-20T02:31:30.083Z,12.57
2024-01-20T02:32:12.554Z,11.43
2024-01-20T02:32:54.949Z,11.75
2024-01-20T02:33:40.057Z,11.77
2024-01-20T02:34:22.703Z,11.07
2024-01-20T02:35:05.027Z,11.75
2024-01-20T02:35:47.524Z,11.30
2024-01-20T02:36:29.863Z,11.80
2024-01-20T02:37:12.043Z,12.68
2024-01-20T02:37:54.707Z,11.32
2024-01-20T02:38:36.910Z,11.73
2024-01-20T02:39:19.198Z,10.57
2024-01-20T02:40:01.829Z,10.35
2024-01-20T02:40:44.044Z,11.20
2024-01-20T02:41:26.784Z,11.95
2024-01-20T02:42:10.679Z,11.75
2024-01-20T02:42:52.866Z,11.13
2024-01-20T02:43:35.036Z,11.02
2024-01-20T02:44:17.683Z,11.40
2024-01-20T02:44:59.916Z,11.00
2024-01-20T02:45:42.135Z,10.90
2024-01-20T02:46:24.671Z,11.02
2024-01-20T02:47:07.087Z,10.52
2024-01-20T02:47:54.219Z,11.50
2024-01-20T02:48:37.138Z,10.55
2024-01-20T02:49:23.052Z,9.85
2024-01-20T02:50:05.998Z,10.10
2024-01-20T02:50:48.175Z,10.50
2024-01-20T02:51:30.673Z,11.55
2024-01-20T02:52:12.984Z,11.00
2024-01-20T02:52:55.180Z,10.75
2024-01-20T02:53:37.671Z,10.80
2024-01-20T02:54:19.917Z,10.88
2024-01-20T02:55:02.130Z,11.20
2024-01-20T02:55:44.715Z,11.27
2024-01-20T02:56:27.051Z,10.05
2024-01-20T02:57:09.609Z,10.00
2024-01-20T02:57:51.785Z,9.98
2024-01-20T02:58:33.926Z,10.70
2024-01-20T02:59:16.165Z,10.77
2024-01-20T02:59:58.858Z,9.63
2024-01-20T03:00:41.150Z,10.07
2024-01-20T03:01:23.951Z,10.73
2024-01-20T03:02:06.640Z,10.30
2024-01-20T03:02:48.954Z,10.55
2024-01-20T03:03:31.282Z,10.80
2024-01-20T03:04:14.831Z,10.43
2024-01-20T03:05:01.199Z,10.90
2024-01-20T03:05:43.842Z,10.70
2024-01-20T03:06:26.045Z,10.75
2024-01-20T03:07:08.254Z,10.00
2024-01-20T03:07:50.812Z,9.43
2024-01-20T03:08:33.016Z,10.02
2024-01-20T03:09:16.080Z,11.05
2024-01-20T03:09:58.891Z,10.20
2024-01-20T03:10:41.065Z,10.73
2024-01-20T03:11:23.639Z,11.18
2024-01-20T03:12:05.975Z,9.90
2024-01-20T03:12:48.220Z,9.80
2024-01-20T03:13:30.802Z,11.15
2024-01-20T03:14:13.102Z,11.55
2024-01-20T03:14:58.039Z,10.52
2024-01-20T03:15:40.837Z,9.77
2024-01-20T03:16:23.026Z,9.80
2024-01-20T03:17:05.757Z,10.20
2024-01-20T03:17:48.027Z,9.95
2024-01-20T03:18:33.009Z,9.10
2024-01-20T03:19:15.215Z,9.82
2024-01-20T03:19:57.947Z,9.50
2024-01-20T03:20:40.193Z,9.90
2024-01-20T03:21:22.751Z,10.10
2024-01-20T03:22:05.697Z,9.02
2024-01-20T03:22:47.852Z,9.57
2024-01-20T03:23:30.019Z,9.82
2024-01-20T03:24:12.244Z,8.80
2024-01-20T03:24:54.728Z,8.70
2024-01-20T03:25:36.939Z,9.02
2024-01-20T03:26:19.168Z,8.88
2024-01-20T03:27:01.894Z,9.73
2024-01-20T03:27:44.091Z,9.63
2024-01-20T03:29:10.319Z,8.27
2024-01-20T03:29:52.724Z,9.23
2024-01-20T03:30:35.016Z,9.85
2024-01-20T03:31:18.596Z,9.70
2024-01-20T03:32:00.838Z,9.43
2024-01-20T03:32:43.090Z,9.23
2024-01-20T03:33:25.812Z,8.80
2024-01-20T03:34:08.107Z,9.30
2024-01-20T03:34:50.648Z,9.63
2024-01-20T03:35:32.840Z,9.50
2024-01-20T03:36:15.092Z,9.23
2024-01-20T03:36:59.651Z,9.82
2024-01-20T03:37:41.826Z,9.00
2024-01-20T03:38:23.984Z,9.50
2024-01-20T03:39:06.788Z,9.70
2024-01-20T03:39:48.988Z,9.45
2024-01-20T03:40:32.045Z,9.65
2024-01-20T03:41:15.122Z,10.10
2024-01-20T03:41:59.679Z,9.98
2024-01-20T03:42:41.912Z,9.60
2024-01-20T03:43:24.196Z,8.93
2024-01-20T03:44:08.967Z,9.35
2024-01-20T03:44:51.172Z,9.35
2024-01-20T03:45:33.926Z,9.80
2024-01-20T03:46:19.889Z,10.82
2024-01-20T03:47:02.352Z,10.88
2024-01-20T03:47:44.913Z,9.57
2024-01-20T03:48:27.247Z,10.10
2024-01-20T03:49:09.859Z,10.20
2024-01-20T03:49:52.284Z,9.80
2024-01-20T03:50:35.262Z,9.20
2024-01-20T03:51:17.736Z,9.38
2024-01-20T03:51:59.961Z,9.32
2024-01-20T03:52:42.863Z,9.57
2024-01-20T03:53:25.741Z,10.60
2024-01-20T03:54:10.159Z,9.65
2024-01-20T03:54:52.827Z,10.00
2024-01-20T03:55:35.023Z,9.57
2024-01-20T03:56:17.213Z,9.30
2024-01-20T03:56:59.798Z,9.10
2024-01-20T03:57:42.048Z,9.85
2024-01-20T03:58:24.837Z,9.40
2024-01-20T03:59:07.014Z,9.05
2024-01-20T03:59:49.223Z,9.38
2024-01-20T04:00:31.892Z,9.85
2024-01-20T04:01:14.179Z,9.50
2024-01-20T04:01:56.816Z,9.75
2024-01-20T04:02:39.054Z,9.55
2024-01-20T04:03:21.710Z,9.93
2024-01-20T04:04:05.939Z,10.05
2024-01-20T04:04:48.198Z,10.32
2024-01-20T04:05:30.781Z,9.50
2024-01-20T04:06:13.106Z,9.10
2024-01-20T04:06:55.892Z,9.55
2024-01-20T04:07:40.889Z,8.98
2024-01-20T04:08:23.671Z,9.85
2024-01-20T04:09:05.969Z,10.30
2024-01-20T04:09:48.258Z,10.15
2024-01-20T04:10:30.835Z,9.38
2024-01-20T04:11:13.007Z,9.55
2024-01-20T04:11:55.272Z,9.95
2024-01-20T04:12:38.124Z,9.18
2024-01-20T04:13:20.807Z,10.00
2024-01-20T04:14:03.125Z,9.27
2024-01-20T04:14:45.873Z,9.52
2024-01-20T04:15:28.455Z,9.55
2024-01-20T04:16:10.899Z,9.63
2024-01-20T04:16:53.058Z,9.77
2024-01-20T04:17:35.866Z,10.38
2024-01-20T04:18:18.184Z,10.27
2024-01-20T04:19:00.959Z,10.00
2024-01-20T04:19:43.229Z,9.25
2024-01-20T04:20:25.942Z,8.68
2024-01-20T04:21:08.214Z,9.35
2024-01-20T04:21:50.806Z,10.77
2024-01-20T04:22:33.167Z,10.25
2024-01-20T04:23:18.667Z,9.73
2024-01-20T04:24:01.047Z,9.98
2024-01-20T04:24:43.954Z,8.73
2024-01-20T04:25:26.274Z,9.65
2024-01-20T04:26:08.949Z,10.60
2024-01-20T04:26:51.219Z,9.90
2024-01-20T04:27:41.230Z,9.90
2024-01-20T04:28:23.950Z,8.80
2024-01-20T04:29:06.132Z,8.90
2024-01-20T04:29:48.270Z,8.80
2024-01-20T04:30:30.801Z,9.20
2024-01-20T04:31:12.974Z,9.57
2024-01-20T04:31:55.223Z,9.50
2024-01-20T04:32:39.953Z,9.60
2024-01-20T04:33:22.436Z,9.20
2024-01-20T04:34:06.207Z,9.23
2024-01-20T04:34:48.989Z,9.70
2024-01-20T04:35:31.150Z,9.80
2024-01-20T04:36:13.951Z,9.30
2024-01-20T04:36:56.162Z,9.20
2024-01-20T04:37:39.915Z,10.30
2024-01-20T04:38:22.213Z,10.23
2024-01-20T04:39:05.017Z,9.90
2024-01-20T04:39:47.326Z,10.85
2024-01-20T04:40:29.957Z,10.95
2024-01-20T04:41:12.113Z,11.32
2024-01-20T04:41:54.295Z,10.63
2024-01-20T04:42:37.021Z,10.55
2024-01-20T04:43:19.207Z,10.43
2024-01-20T04:44:02.158Z,11.10
2024-01-20T04:44:44.763Z,11.23
2024-01-20T04:45:27.176Z,10.65
2024-01-20T04:46:09.648Z,10.43
2024-01-20T04:46:51.844Z,10.55
2024-01-20T04:47:34.338Z,10.27
2024-01-20T04:48:17.622Z,11.40
2024-01-20T04:48:59.987Z,11.23
2024-01-20T04:49:42.458Z,10.57
2024-01-20T04:50:24.920Z,10.40
2024-01-20T04:51:07.195Z,10.98
2024-01-20T04:51:53.231Z,10.73
2024-01-20T04:52:35.828Z,9.85
2024-01-20T04:53:18.049Z,10.20
2024-01-20T04:54:00.420Z,9.63
2024-01-20T04:54:45.196Z,9.57
2024-01-20T04:55:27.923Z,9.32
2024-01-20T04:56:10.146Z,10.38
2024-01-20T04:56:52.487Z,11.02
2024-01-20T04:57:34.807Z,11.25
2024-01-20T04:58:17.106Z,10.77
2024-01-20T04:58:59.388Z,10.88
2024-01-20T04:59:41.865Z,10.30
2024-01-20T05:00:24.193Z,11.23
2024-01-20T05:01:07.028Z,10.40
2024-01-20T05:01:49.746Z,10.70
2024-01-20T05:02:31.990Z,11.38
2024-01-20T05:03:14.277Z,12.15
2024-01-20T05:03:56.748Z,11.65
2024-01-20T05:04:39.375Z,10.93
2024-01-20T05:05:21.939Z,11.70
2024-01-20T05:06:04.415Z,12.32
2024-01-20T05:06:47.019Z,11.73
2024-01-20T05:07:29.445Z,11.63
2024-01-20T05:08:11.824Z,10.82
2024-01-20T05:08:54.067Z,10.80
2024-01-20T05:09:36.429Z,11.43
2024-01-20T05:10:19.029Z,11.65
2024-01-20T05:11:01.204Z,12.10
2024-01-20T05:11:43.808Z,11.23
2024-01-20T05:12:27.280Z,11.88
2024-01-20T05:13:09.891Z,11.25
2024-01-20T05:13:52.054Z,12.20
2024-01-20T05:14:34.274Z,12.55
2024-01-20T05:15:17.395Z,12.20
2024-01-20T05:15:59.995Z,11.65
2024-01-20T05:16:42.241Z,12.00
2024-01-20T05:17:24.855Z,10.60
2024-01-20T05:18:07.281Z,11.65
2024-01-20T05:18:50.224Z,12.93
2024-01-20T05:19:33.023Z,12.45
2024-01-20T05:20:16.352Z,12.13
2024-01-20T05:20:59.041Z,12.02
2024-01-20T05:21:41.312Z,13.02
2024-01-20T05:22:23.970Z,12.18
2024-01-20T05:23:06.203Z,13.13
2024-01-20T05:23:48.923Z,12.75
2024-01-20T05:24:31.183Z,13.00
2024-01-20T05:25:16.372Z,12.65
2024-01-20T05:25:59.038Z,12.90
2024-01-20T05:26:41.300Z,12.60
2024-01-20T05:27:23.964Z,12.95
2024-01-20T05:28:06.252Z,13.15
2024-01-20T05:28:48.797Z,12.90
2024-01-20T05:29:30.991Z,13.10
2024-01-20T05:30:13.506Z,12.80
2024-01-20T05:30:55.810Z,14.55
2024-01-20T05:31:37.989Z,14.98
2024-01-20T05:32:20.130Z,14.25
2024-01-20T05:33:02.590Z,12.30
2024-01-20T05:33:45.088Z,14.02
2024-01-20T05:34:27.374Z,14.27
2024-01-20T05:35:10.024Z,13.80
2024-01-20T05:35:52.286Z,13.63
2024-01-20T05:36:35.209Z,13.60
2024-01-20T05:37:17.785Z,13.68
2024-01-20T05:37:59.957Z,13.43
2024-01-20T05:38:42.228Z,13.95
2024-01-20T05:39:24.788Z,14.07
2024-01-20T05:40:07.438Z,13.60
2024-01-20T05:40:49.919Z,13.90
2024-01-20T05:41:32.110Z,14.00
2024-01-20T05:42:15.373Z,13.35
2024-01-20T05:42:57.898Z,14.68
2024-01-20T05:43:40.090Z,14.68
2024-01-20T05:44:22.235Z,13.95
2024-01-20T05:45:05.414Z,14.65
2024-01-20T05:45:50.142Z,14.43
2024-01-20T05:46:32.398Z,13.85
2024-01-20T05:47:14.867Z,14.77
2024-01-20T05:47:57.249Z,14.73
2024-01-20T05:48:40.169Z,14.18
2024-01-20T05:49:22.975Z,14.80
2024-01-20T05:50:08.028Z,14.50
2024-01-20T05:50:50.310Z,13.77
2024-01-20T05:51:32.884Z,13.93
2024-01-20T05:52:15.115Z,14.73
2024-01-20T05:52:57.308Z,14.40
2024-01-20T05:53:39.760Z,14.27
2024-01-20T05:54:22.020Z,15.48
2024-01-20T05:55:04.331Z,13.85
2024-01-20T05:55:46.976Z,14.93
2024-01-20T05:56:29.141Z,14.15
2024-01-20T05:57:11.680Z,13.82
2024-01-20T05:57:54.034Z,14.25
2024-01-20T05:58:36.206Z,14.02
2024-01-20T05:59:21.585Z,15.32
2024-01-20T06:00:06.922Z,14.63
2024-01-20T06:00:49.361Z,14.57
2024-01-20T06:01:32.050Z,14.02
2024-01-20T06:02:14.259Z,13.70
2024-01-20T06:02:56.514Z,15.20
2024-01-20T06:03:41.459Z,14.82
2024-01-20T06:04:27.107Z,14.65
2024-01-20T06:05:10.000Z,15.73
2024-01-20T06:05:52.198Z,15.98
2024-01-20T06:06:34.453Z,15.15
2024-01-20T06:07:17.088Z,15.48
2024-01-20T06:07:59.345Z,15.73
2024-01-20T06:08:41.950Z,16.02
2024-01-20T06:09:24.214Z,15.73
2024-01-20T06:10:06.993Z,15.35
2024-01-20T06:10:49.308Z,13.88
2024-01-20T06:11:33.891Z,14.65
2024-01-20T06:12:16.082Z,14.10
2024-01-20T06:12:58.269Z,14.70
2024-01-20T06:13:40.902Z,15.40
2024-01-20T06:14:23.202Z,15.95
2024-01-20T06:15:06.103Z,15.60
2024-01-20T06:15:48.360Z,16.10
2024-01-20T06:16:31.012Z,16.55
2024-01-20T06:17:13.254Z,15.30
2024-01-20T06:17:56.034Z,15.57
2024-01-20T06:18:38.330Z,15.35
2024-01-20T06:19:20.965Z,15.57
2024-01-20T06:20:04.963Z,16.65
2024-01-20T06:20:47.179Z,15.93
2024-01-20T06:21:29.500Z,15.10
2024-01-20T06:22:12.013Z,15.15
2024-01-20T06:22:54.197Z,15.57
2024-01-20T06:23:36.982Z,15.77
2024-01-20T06:24:19.481Z,15.55
2024-01-20T06:25:01.984Z,16.15
2024-01-20T06:25:44.222Z,16.30
2024-01-20T06:26:27.052Z,16.25
2024-01-20T06:27:09.209Z,17.08
2024-01-20T06:27:51.929Z,15.90
2024-01-20T06:28:34.165Z,16.17
2024-01-20T06:29:16.360Z,15.93
2024-01-20T06:30:01.205Z,16.85
2024-01-20T06:30:43.704Z,15.90
2024-01-20T06:31:26.977Z,16.83
2024-01-20T06:32:09.351Z,16.20
2024-01-20T06:32:52.112Z,16.48
2024-01-20T06:33:34.450Z,16.48
2024-01-20T06:34:17.356Z,15.50
2024-01-20T06:35:01.792Z,15.65
2024-01-20T06:35:44.023Z,15.32
2024-01-20T06:36:26.899Z,15.50
2024-01-20T06:37:09.861Z,16.00
2024-01-20T06:37:52.095Z,17.63
2024-01-20T06:38:34.325Z,17.25
2024-01-20T06:39:16.921Z,14.73
2024-01-20T06:39:59.153Z,13.77
2024-01-20T06:40:41.371Z,16.23
2024-01-20T06:41:23.669Z,15.50
2024-01-20T06:42:06.128Z,15.00
2024-01-20T06:42:48.384Z,15.80
2024-01-20T06:43:31.010Z,16.17
2024-01-20T06:44:13.399Z,16.92
2024-01-20T06:44:57.909Z,16.77
2024-01-20T06:45:41.131Z,15.60
2024-01-20T06:46:23.351Z,15.70
2024-01-20T06:47:08.465Z,16.77
2024-01-20T06:47:51.047Z,16.23
2024-01-20T06:48:35.341Z,16.50
2024-01-20T06:49:18.081Z,17.95
2024-01-20T06:50:00.400Z,16.60
2024-01-20T06:50:44.787Z,15.50
2024-01-20T06:51:28.534Z,17.00
2024-01-20T06:52:11.118Z,14.98
2024-01-20T06:52:53.420Z,14.80
2024-01-20T06:53:35.910Z,14.82
2024-01-20T06:54:18.140Z,15.98
2024-01-20T06:55:00.795Z,16.13
2024-01-20T06:55:43.159Z,16.30
2024-01-20T06:56:26.175Z,14.80
2024-01-20T06:57:08.612Z,15.68
2024-01-20T06:57:50.947Z,15.45
2024-01-20T06:58:33.169Z,15.90
2024-01-20T06:59:15.409Z,15.75
2024-01-20T06:59:57.807Z,16.33
2024-01-20T07:00:40.180Z,16.38
2024-01-20T07:01:23.676Z,16.98
2024-01-20T07:02:06.055Z,16.02
2024-01-20T07:02:48.328Z,15.52
2024-01-20T07:03:32.027Z,16.30
2024-01-20T07:04:14.328Z,16.50
2024-01-20T07:04:56.914Z,15.63
2024-01-20T07:05:39.201Z,15.23
2024-01-20T07:06:28.092Z,16.33
2024-01-20T07:07:10.416Z,16.50
2024-01-20T07:07:53.158Z,16.38
2024-01-20T07:08:35.490Z,16.35
2024-01-20T07:09:17.828Z,16.20
2024-01-20T07:10:00.070Z,15.95
2024-01-20T07:10:42.370Z,16.67
2024-01-20T07:11:28.145Z,15.68
2024-01-20T07:12:10.564Z,16.00
2024-01-20T07:12:52.839Z,16.98
2024-01-20T07:13:35.250Z,16.35
2024-01-20T07:14:18.320Z,16.05
2024-01-20T07:15:00.902Z,16.48
2024-01-20T07:15:43.254Z,16.42
2024-01-20T07:16:25.522Z,15.43
2024-01-20T07:17:09.101Z,16.48
2024-01-20T07:17:51.474Z,17.20
2024-01-20T07:18:33.912Z,17.17
2024-01-20T07:19:16.203Z,15.93
2024-01-20T07:19:59.321Z,15.77
2024-01-20T07:20:41.876Z,16.27
2024-01-20T07:21:26.585Z,16.70
2024-01-20T07:22:09.036Z,16.33
2024-01-20T07:22:51.328Z,16.35
2024-01-20T07:23:33.630Z,15.68
2024-01-20T07:24:15.936Z,14.45
2024-01-20T07:24:58.103Z,15.23
2024-01-20T07:25:40.961Z,15.98
2024-01-20T07:26:23.209Z,15.73
2024-01-20T07:27:05.604Z,16.17
2024-01-20T07:27:48.722Z,15.95
2024-01-20T07:28:31.115Z,15.85
2024-01-20T07:29:13.423Z,15.75
2024-01-20T07:29:56.228Z,16.25
2024-01-20T07:30:38.518Z,15.75
2024-01-20T07:31:20.878Z,15.73
2024-01-20T07:32:03.124Z,16.98
2024-01-20T07:32:45.473Z,15.77
2024-01-20T07:33:28.216Z,16.77
2024-01-20T07:34:10.617Z,18.52
2024-01-20T07:34:53.120Z,17.77
2024-01-20T07:35:35.450Z,17.08
2024-01-20T07:36:18.046Z,15.10
2024-01-20T07:37:00.409Z,15.52
2024-01-20T07:37:43.119Z,16.00
2024-01-20T07:38:25.349Z,16.33
2024-01-20T07:39:08.054Z,16.45
2024-01-20T07:39:50.379Z,18.88
2024-01-20T07:40:33.037Z,17.70
2024-01-20T07:41:15.320Z,15.75
2024-01-20T07:41:58.094Z,16.27
2024-01-20T07:42:41.790Z,15.80
2024-01-20T07:43:24.417Z,17.33
2024-01-20T07:44:06.914Z,24.00
2024-01-20T07:44:49.146Z,24.60
2024-01-20T07:45:32.364Z,18.60
2024-01-20T07:46:14.630Z,17.38
2024-01-20T07:46:57.973Z,18.63
2024-01-20T07:47:40.267Z,22.60
2024-01-20T07:48:23.247Z,20.95
2024-01-20T07:49:06.180Z,18.73
2024-01-20T07:49:48.519Z,17.88
2024-01-20T07:50:31.202Z,17.73
2024-01-20T07:51:13.458Z,16.92
2024-01-20T07:51:56.044Z,16.88
2024-01-20T07:52:40.898Z,15.80
2024-01-20T07:53:23.386Z,16.40
2024-01-20T07:54:05.674Z,16.80
2024-01-20T07:54:48.078Z,16.65
2024-01-20T07:55:30.274Z,16.02
2024-01-20T07:56:13.004Z,16.30
2024-01-20T07:56:55.252Z,15.75
2024-01-20T07:57:38.221Z,14.95
2024-01-20T07:58:20.529Z,15.48
2024-01-20T07:59:03.136Z,16.98
2024-01-20T07:59:45.364Z,15.10
2024-01-20T08:00:28.036Z,15.20
2024-01-20T08:01:10.372Z,15.68
2024-01-20T08:01:53.086Z,16.00
2024-01-20T08:02:35.280Z,16.10
2024-01-20T08:03:17.914Z,16.45
2024-01-20T08:04:00.275Z,16.80
2024-01-20T08:04:42.602Z,16.60
2024-01-20T08:05:25.293Z,15.95
2024-01-20T08:06:08.057Z,16.42
2024-01-20T08:06:50.409Z,16.25
2024-01-20T08:07:33.124Z,15.95
2024-01-20T08:08:15.336Z,15.45
2024-01-20T08:08:58.110Z,16.15
2024-01-20T08:09:40.486Z,14.20
2024-01-20T08:10:23.052Z,14.73
2024-01-20T08:11:05.422Z,14.80
2024-01-20T08:11:48.126Z,14.80
2024-01-20T08:12:30.597Z,15.18
2024-01-20T08:13:13.023Z,15.45
2024-01-20T08:13:55.252Z,15.68
2024-01-20T08:14:37.440Z,16.00
2024-01-20T08:15:20.169Z,15.30
2024-01-20T08:16:02.352Z,16.17
2024-01-20T08:16:44.666Z,16.55
2024-01-20T08:17:29.063Z,18.25
2024-01-20T08:18:11.401Z,18.05
2024-01-20T08:18:53.737Z,17.60
2024-01-20T08:19:36.218Z,16.70
2024-01-20T08:20:18.597Z,16.77
2024-01-20T08:21:05.868Z,16.45
2024-01-20T08:21:48.195Z,16.13
2024-01-20T08:22:30.457Z,16.60
2024-01-20T08:23:12.933Z,16.88
2024-01-20T08:23:56.019Z,16.35
2024-01-20T08:24:38.265Z,16.25
2024-01-20T08:25:20.459Z,15.18
2024-01-20T08:26:04.653Z,16.00
2024-01-20T08:26:47.447Z,15.80
2024-01-20T08:27:30.316Z,15.90
2024-01-20T08:28:12.557Z,14.55
2024-01-20T08:28:55.285Z,14.82
2024-01-20T08:29:37.477Z,15.23
2024-01-20T08:30:20.203Z,15.27
2024-01-20T08:31:02.739Z,15.25
2024-01-20T08:31:45.262Z,15.10
2024-01-20T08:32:27.557Z,14.35
2024-01-20T08:33:10.023Z,14.93
2024-01-20T08:33:52.380Z,15.05
2024-01-20T08:34:34.783Z,15.05
2024-01-20T08:35:17.113Z,15.23
2024-01-20T08:36:00.173Z,15.63
2024-01-20T08:36:42.417Z,15.85
2024-01-20T08:37:24.983Z,14.20
2024-01-20T08:38:07.209Z,14.65
2024-01-20T08:38:49.538Z,15.32
2024-01-20T08:39:34.288Z,16.45
2024-01-20T08:40:19.447Z,16.20
2024-01-20T08:41:02.010Z,15.23
2024-01-20T08:41:44.195Z,16.08
2024-01-20T08:42:27.002Z,15.10
2024-01-20T08:43:09.268Z,15.90
2024-01-20T08:43:51.512Z,14.98
2024-01-20T08:44:33.804Z,15.73
2024-01-20T08:45:16.125Z,15.07
2024-01-20T08:45:58.344Z,15.05
2024-01-20T08:46:40.570Z,15.60
2024-01-20T08:47:22.817Z,15.95
2024-01-20T08:48:05.304Z,15.73
2024-01-20T08:48:47.647Z,15.43
2024-01-20T08:49:30.004Z,16.52
2024-01-20T08:50:12.333Z,15.55
2024-01-20T08:50:54.713Z,15.57
2024-01-20T08:51:37.417Z,14.80
2024-01-20T08:52:19.945Z,15.82
2024-01-20T08:53:02.241Z,15.73
2024-01-20T08:53:44.554Z,15.80
2024-01-20T08:54:26.767Z,14.70
2024-01-20T08:55:09.156Z,15.35
2024-01-20T08:55:51.437Z,15.00
2024-01-20T08:56:34.853Z,15.23
2024-01-20T08:57:17.205Z,16.13
2024-01-20T08:57:59.452Z,16.80
2024-01-20T08:58:41.729Z,15.55
2024-01-20T08:59:24.141Z,14.95
2024-01-20T09:00:08.393Z,14.20
2024-01-20T09:00:51.326Z,14.85
2024-01-20T09:01:33.724Z,14.63
2024-01-20T09:02:15.934Z,15.65
2024-01-20T09:02:58.358Z,15.30
2024-01-20T09:03:41.209Z,14.43
2024-01-20T09:04:23.649Z,16.23
2024-01-20T09:05:06.285Z,16.25
2024-01-20T09:05:48.661Z,15.27
2024-01-20T09:06:31.397Z,14.75
2024-01-20T09:07:13.674Z,14.60
2024-01-20T09:07:55.886Z,13.88
2024-01-20T09:08:38.101Z,13.10
2024-01-20T09:09:20.723Z,13.05
2024-01-20T09:10:04.778Z,14.20
2024-01-20T09:10:46.987Z,15.20
2024-01-20T09:11:29.222Z,13.77
2024-01-20T09:12:11.411Z,14.98
2024-01-20T09:12:53.600Z,14.20
2024-01-20T09:13:35.932Z,15.75
2024-01-20T09:14:18.173Z,14.40
2024-01-20T09:15:00.613Z,14.50